createdAt,value
2019-02-16T00:00:55.021Z,30.03
2019-02-16T00:03:24.658Z,33.60
2019-02-16T00:05:54.320Z,26.63
2019-02-16T00:08:23.964Z,25.90
2019-02-16T00:10:53.563Z,24.27
2019-02-16T00:13:23.099Z,26.73
2019-02-16T00:15:52.818Z,23.23
2019-02-16T00:18:23.055Z,22.03
2019-02-16T00:20:52.835Z,26.13
2019-02-16T00:23:22.469Z,26.80
2019-02-16T00:25:52.176Z,18.67
2019-02-16T00:28:21.848Z,18.87
2019-02-16T00:30:51.438Z,20.27
2019-02-16T00:33:21.050Z,18.80
2019-02-16T00:35:50.950Z,20.07
2019-02-16T00:38:20.659Z,18.80
2019-02-16T00:40:50.290Z,21.63
2019-02-16T00:43:19.903Z,18.90
2019-02-16T00:45:49.414Z,21.07
2019-02-16T00:48:19.052Z,21.80
2019-02-16T00:50:48.571Z,24.87
2019-02-16T00:53:18.307Z,20.60
2019-02-16T00:55:47.922Z,25.03
2019-02-16T00:58:17.622Z,24.27
2019-02-16T01:00:47.345Z,21.47
2019-02-16T01:03:17.072Z,20.13
2019-02-16T01:05:46.692Z,22.97
2019-02-16T01:08:16.419Z,19.07
2019-02-16T01:10:46.321Z,20.47
2019-02-16T01:13:19.066Z,21.30
2019-02-16T01:15:48.712Z,21.23
2019-02-16T01:18:18.300Z,22.10
2019-02-16T01:20:48.122Z,19.20
2019-02-16T01:23:17.742Z,21.23
2019-02-16T01:25:47.477Z,20.00
2019-02-16T01:28:17.139Z,22.43
2019-02-16T01:30:46.775Z,22.00
2019-02-16T01:33:16.286Z,18.77
2019-02-16T01:35:45.816Z,20.17
2019-02-16T01:38:15.436Z,22.20
2019-02-16T01:40:45.154Z,20.77
2019-02-16T01:43:14.788Z,18.43
2019-02-16T01:45:44.376Z,17.27
2019-02-16T01:48:13.995Z,18.23
2019-02-16T01:50:43.664Z,21.10
2019-02-16T01:53:15.358Z,21.90
2019-02-16T01:55:44.718Z,21.50
2019-02-16T01:58:14.418Z,22.33
2019-02-16T02:00:44.091Z,21.20
2019-02-16T02:03:13.723Z,19.77
2019-02-16T02:05:43.356Z,20.00
2019-02-16T02:08:13.047Z,16.97
2019-02-16T02:10:42.656Z,20.53
2019-02-16T02:13:12.353Z,20.50
2019-02-16T02:15:42.107Z,19.20
2019-02-16T02:18:11.789Z,16.97
2019-02-16T02:20:41.410Z,17.03
2019-02-16T02:23:11.034Z,17.47
2019-02-16T02:25:40.613Z,17.47
2019-02-16T02:28:10.233Z,15.00
2019-02-16T02:30:40.174Z,15.80
2019-02-16T02:33:09.949Z,16.80
2019-02-16T02:35:39.575Z,16.40
2019-02-16T02:38:09.355Z,16.77
2019-02-16T02:40:39.121Z,16.23
2019-02-16T02:43:08.652Z,15.63
2019-02-16T02:45:38.268Z,18.90
2019-02-16T02:48:07.939Z,17.00
2019-02-16T02:50:37.678Z,17.50
2019-02-16T02:53:07.460Z,20.67
2019-02-16T02:55:37.089Z,20.13
2019-02-16T02:58:06.749Z,18.33
2019-02-16T03:00:36.237Z,19.17
2019-02-16T03:03:05.819Z,19.67
2019-02-16T03:05:35.583Z,18.40
2019-02-16T03:08:05.404Z,13.53
2019-02-16T03:10:35.029Z,17.93
2019-02-16T03:13:04.754Z,17.43
2019-02-16T03:15:34.379Z,16.50
2019-02-16T03:18:06.478Z,19.07
2019-02-16T03:20:36.077Z,18.27
2019-02-16T03:23:16.698Z,17.67
2019-02-16T03:25:52.812Z,21.13
2019-02-16T03:28:48.506Z,22.97
2019-02-16T03:32:07.111Z,19.33
2019-02-16T03:35:17.373Z,18.50
2019-02-16T03:38:34.168Z,16.57
2019-02-16T03:41:03.845Z,16.07
2019-02-16T03:43:35.976Z,19.57
2019-02-16T03:46:05.612Z,19.57
2019-02-16T03:48:35.179Z,19.17
2019-02-16T03:51:04.941Z,18.47
2019-02-16T03:53:34.432Z,18.20
2019-02-16T03:56:04.183Z,21.73
2019-02-16T03:58:33.890Z,19.00
2019-02-16T04:01:03.651Z,17.37
2019-02-16T04:03:33.129Z,20.87
2019-02-16T04:06:02.748Z,17.57
2019-02-16T04:08:32.423Z,19.57
2019-02-16T04:11:02.191Z,16.23
2019-02-16T04:13:32.236Z,18.70
2019-02-16T04:16:02.014Z,16.67
2019-02-16T04:18:31.700Z,17.73
2019-02-16T04:21:01.365Z,18.53
2019-02-16T04:23:30.877Z,15.83
2019-02-16T04:26:00.565Z,22.77
2019-02-16T04:28:30.547Z,19.57
2019-02-16T04:31:00.176Z,19.87
2019-02-16T04:33:29.903Z,22.27
2019-02-16T04:35:59.624Z,20.90
2019-02-16T04:38:29.214Z,18.07
2019-02-16T04:40:58.982Z,20.23
2019-02-16T04:43:28.649Z,24.57
2019-02-16T04:45:58.179Z,25.27
2019-02-16T04:48:27.800Z,21.03
2019-02-16T04:50:57.470Z,51.87
2019-02-16T04:53:27.225Z,62.77
2019-02-16T04:55:56.994Z,58.73
2019-02-16T04:58:26.700Z,26.40
2019-02-16T05:00:56.599Z,29.93
2019-02-16T05:03:26.247Z,25.60
2019-02-16T05:05:55.959Z,34.03
2019-02-16T05:08:25.621Z,19.20
2019-02-16T05:10:55.401Z,21.97
2019-02-16T05:13:25.015Z,51.53
2019-02-16T05:15:54.624Z,32.77
2019-02-16T05:18:24.319Z,41.47
2019-02-16T05:20:54.047Z,51.60
2019-02-16T05:23:23.682Z,86.27
2019-02-16T05:25:53.386Z,109.53
2019-02-16T05:28:23.086Z,96.27
2019-02-16T05:30:52.754Z,53.60
2019-02-16T05:33:22.426Z,52.13
2019-02-16T05:35:52.067Z,57.20
2019-02-16T05:38:23.289Z,56.17
2019-02-16T05:40:52.834Z,55.50
2019-02-16T05:43:22.557Z,54.07
2019-02-16T05:45:52.296Z,55.07
2019-02-16T05:48:21.927Z,58.90
2019-02-16T05:50:51.510Z,54.43
2019-02-16T05:53:22.798Z,63.40
2019-02-16T05:55:52.531Z,58.97
2019-02-16T05:58:24.330Z,50.97
2019-02-16T06:00:53.983Z,59.20
2019-02-16T06:03:23.622Z,114.13
2019-02-16T06:05:53.329Z,74.70
2019-02-16T06:08:23.118Z,42.70
2019-02-16T06:10:52.702Z,48.27
2019-02-16T06:13:22.365Z,41.27
2019-02-16T06:15:52.045Z,47.90
2019-02-16T06:18:21.758Z,44.17
2019-02-16T06:20:51.418Z,44.47
2019-02-16T06:23:21.009Z,43.27
2019-02-16T06:25:50.646Z,68.33
2019-02-16T06:28:20.409Z,53.93
2019-02-16T06:30:50.112Z,48.43
2019-02-16T06:33:19.755Z,46.10
2019-02-16T06:35:52.379Z,45.23
2019-02-16T06:38:22.181Z,44.67
2019-02-16T06:40:51.908Z,54.43
2019-02-16T06:43:21.505Z,45.77
2019-02-16T06:45:51.157Z,51.80
2019-02-16T06:48:20.897Z,44.30
2019-02-16T06:50:50.570Z,45.87
2019-02-16T06:53:20.146Z,40.30
2019-02-16T06:56:06.112Z,35.47
2019-02-16T06:58:37.091Z,34.13
2019-02-16T07:01:06.837Z,32.13
2019-02-16T07:03:36.609Z,33.17
2019-02-16T07:06:08.421Z,26.03
2019-02-16T07:08:38.154Z,27.17
2019-02-16T07:11:07.937Z,29.17
2019-02-16T07:13:37.668Z,24.23
2019-02-16T07:16:32.123Z,22.47
2019-02-16T07:19:11.413Z,24.50
2019-02-16T07:21:41.150Z,30.37
2019-02-16T07:24:10.763Z,42.80
2019-02-16T07:26:40.558Z,44.87
2019-02-16T07:29:10.144Z,47.60
2019-02-16T07:31:39.972Z,49.30
2019-02-16T07:34:09.933Z,57.20
2019-02-16T07:36:39.521Z,54.37
2019-02-16T07:39:09.950Z,49.90
2019-02-16T07:41:39.503Z,51.10
2019-02-16T07:44:33.351Z,50.47
2019-02-16T07:47:22.894Z,47.53
2019-02-16T07:50:12.516Z,54.40
2019-02-16T07:53:10.557Z,35.70
2019-02-16T07:55:58.707Z,32.13
2019-02-16T07:58:39.148Z,32.43
2019-02-16T08:01:17.988Z,29.60
2019-02-16T08:04:12.461Z,27.17
2019-02-16T08:07:04.094Z,24.13
2019-02-16T08:09:52.835Z,16.80
2019-02-16T08:12:31.857Z,23.77
2019-02-16T08:15:15.131Z,23.77
2019-02-16T08:18:10.990Z,20.83
2019-02-16T08:21:02.582Z,18.17
2019-02-16T08:23:51.667Z,20.60
2019-02-16T08:26:37.869Z,20.73
2019-02-16T08:29:29.337Z,14.33
2019-02-16T08:32:11.194Z,15.33
2019-02-16T08:35:05.624Z,16.60
2019-02-16T08:37:45.007Z,17.43
2019-02-16T08:40:21.116Z,12.93
2019-02-16T08:43:24.921Z,12.90
2019-02-16T08:46:05.038Z,14.40
2019-02-16T08:48:49.496Z,16.60
2019-02-16T08:51:36.632Z,15.73
2019-02-16T08:54:37.384Z,12.67
2019-02-16T08:57:19.923Z,14.10
2019-02-16T09:00:16.481Z,16.93
2019-02-16T09:03:05.347Z,17.50
2019-02-16T09:05:53.949Z,17.20
2019-02-16T09:08:42.764Z,15.60
2019-02-16T09:11:19.780Z,13.20
2019-02-16T09:13:57.252Z,13.60
2019-02-16T09:16:38.535Z,18.00
2019-02-16T09:19:24.073Z,15.50
2019-02-16T09:22:09.042Z,16.10
2019-02-16T09:25:03.702Z,18.13
2019-02-16T09:27:52.313Z,13.63
2019-02-16T09:30:43.968Z,14.97
2019-02-16T09:33:27.385Z,16.57
2019-02-16T09:36:03.199Z,27.67
2019-02-16T09:38:50.332Z,16.27
2019-02-16T09:41:41.911Z,14.50
2019-02-16T09:44:29.480Z,12.97
2019-02-16T09:47:29.941Z,13.10
2019-02-16T09:50:03.921Z,15.10
2019-02-16T09:52:52.259Z,17.53
2019-02-16T09:55:49.982Z,15.70
2019-02-16T09:58:37.703Z,14.73
2019-02-16T10:01:24.946Z,14.33
2019-02-16T10:04:00.296Z,18.13
2019-02-16T10:06:48.893Z,19.73
2019-02-16T10:09:36.110Z,18.43
2019-02-16T10:12:20.244Z,17.63
2019-02-16T10:15:18.041Z,18.60
2019-02-16T10:18:00.667Z,18.83
2019-02-16T10:21:01.638Z,18.47
2019-02-16T10:23:53.271Z,15.87
2019-02-16T10:26:53.889Z,20.83
2019-02-16T10:29:48.315Z,22.03
2019-02-16T10:32:41.387Z,15.63
2019-02-16T10:35:39.383Z,16.87
2019-02-16T10:38:15.422Z,12.43
2019-02-16T10:41:02.840Z,15.77
2019-02-16T10:43:48.418Z,18.90
2019-02-16T10:46:36.433Z,16.53
2019-02-16T10:49:18.729Z,13.60
2019-02-16T10:51:57.704Z,12.47
2019-02-16T10:54:52.350Z,14.60
2019-02-16T10:57:39.778Z,15.80
2019-02-16T11:00:28.250Z,13.47
2019-02-16T11:03:19.599Z,12.13
2019-02-16T11:06:11.109Z,14.10
2019-02-16T11:08:59.751Z,14.77
2019-02-16T11:11:51.238Z,11.30
2019-02-16T11:14:34.876Z,16.50
2019-02-16T11:17:17.553Z,13.80
2019-02-16T11:20:18.081Z,12.90
2019-02-16T11:22:57.345Z,11.80
2019-02-16T11:25:39.791Z,14.80
2019-02-16T11:28:28.432Z,15.83
2019-02-16T11:31:31.975Z,11.40
2019-02-16T11:34:18.008Z,10.97
2019-02-16T11:37:06.874Z,19.60
2019-02-16T11:39:52.262Z,10.10
2019-02-16T11:42:39.901Z,11.43
2019-02-16T11:45:20.021Z,14.03
2019-02-16T11:48:04.930Z,16.17
2019-02-16T11:50:49.298Z,12.40
2019-02-16T11:53:46.710Z,12.73
2019-02-16T11:56:37.921Z,13.67
2019-02-16T11:59:23.965Z,13.03
2019-02-16T12:01:59.452Z,12.50
2019-02-16T12:04:48.163Z,15.80
2019-02-16T12:07:42.457Z,12.57
2019-02-16T12:10:46.601Z,24.57
2019-02-16T12:13:32.183Z,14.80
2019-02-16T12:16:20.677Z,16.23
2019-02-16T12:19:24.360Z,19.53
2019-02-16T12:22:15.823Z,20.20
2019-02-16T12:25:13.238Z,16.83
2019-02-16T12:28:01.695Z,12.93
2019-02-16T12:30:53.005Z,13.40
2019-02-16T12:33:44.544Z,15.10
2019-02-16T12:36:31.885Z,13.97
2019-02-16T12:39:26.564Z,17.80
2019-02-16T12:42:09.393Z,20.97
2019-02-16T12:45:12.912Z,19.43
2019-02-16T12:48:04.626Z,24.10
2019-02-16T12:50:51.932Z,18.80
2019-02-16T12:53:47.063Z,19.50
2019-02-16T12:56:29.082Z,20.10
2019-02-16T12:59:24.127Z,19.20
2019-02-16T13:02:16.658Z,23.70
2019-02-16T13:05:14.493Z,18.67
2019-02-16T13:07:51.500Z,28.07
2019-02-16T13:10:27.647Z,15.23
2019-02-16T13:13:10.185Z,24.77
2019-02-16T13:15:46.542Z,18.50
2019-02-16T13:18:47.399Z,13.70
2019-02-16T13:21:35.989Z,13.77
2019-02-16T13:24:24.174Z,16.47
2019-02-16T13:27:24.925Z,19.30
2019-02-16T13:30:07.251Z,18.17
2019-02-16T13:32:44.169Z,15.33
2019-02-16T13:35:23.935Z,19.20
2019-02-16T13:38:18.663Z,21.50
2019-02-16T13:41:05.441Z,24.13
2019-02-16T13:43:49.431Z,20.67
2019-02-16T13:46:38.147Z,91.13
2019-02-16T13:49:18.879Z,83.30
2019-02-16T13:52:13.778Z,18.23
2019-02-16T13:54:51.502Z,19.73
2019-02-16T13:57:37.313Z,11.77
2019-02-16T14:00:15.684Z,20.77
2019-02-16T14:03:00.878Z,16.57
2019-02-16T14:05:37.422Z,26.53
2019-02-16T14:08:15.142Z,15.43
2019-02-16T14:11:03.491Z,14.77
2019-02-16T14:14:00.155Z,12.43
2019-02-16T14:16:54.713Z,17.70
2019-02-16T14:19:24.328Z,9.53
2019-02-16T14:21:53.870Z,11.60
2019-02-16T14:24:41.289Z,13.17
2019-02-16T14:27:11.088Z,12.67
2019-02-16T14:29:40.714Z,17.10
2019-02-16T14:32:10.345Z,13.40
2019-02-16T14:34:42.021Z,13.60
2019-02-16T14:37:26.108Z,13.80
2019-02-16T14:39:55.894Z,11.87
2019-02-16T14:42:25.623Z,10.93
2019-02-16T14:44:55.353Z,14.47
2019-02-16T14:47:25.130Z,14.60
2019-02-16T14:49:54.951Z,13.97
2019-02-16T14:52:24.740Z,38.20
2019-02-16T14:54:54.427Z,29.50
2019-02-16T14:57:25.608Z,23.23
2019-02-16T14:59:55.289Z,12.97
2019-02-16T15:02:24.751Z,13.97
2019-02-16T15:04:54.389Z,22.60
2019-02-16T15:07:26.119Z,38.30
2019-02-16T15:09:55.824Z,12.27
2019-02-16T15:12:25.320Z,13.13
2019-02-16T15:14:54.882Z,10.20
2019-02-16T15:17:28.663Z,12.53
2019-02-16T15:19:55.920Z,14.90
2019-02-16T15:22:25.601Z,22.27
2019-02-16T15:24:55.315Z,22.23
2019-02-16T15:27:25.251Z,22.50
2019-02-16T15:29:54.758Z,18.73
2019-02-16T15:32:24.434Z,23.53
2019-02-16T15:34:54.114Z,17.87
2019-02-16T15:37:23.910Z,21.90
2019-02-16T15:39:53.679Z,20.73
2019-02-16T15:42:23.249Z,20.07
2019-02-16T15:44:53.004Z,22.27
2019-02-16T15:47:22.645Z,18.60
2019-02-16T15:49:52.350Z,22.37
2019-02-16T15:52:21.801Z,20.03
2019-02-16T15:54:51.925Z,21.70
2019-02-16T15:57:21.550Z,16.97
2019-02-16T15:59:51.249Z,18.07
2019-02-16T16:02:21.025Z,19.83
2019-02-16T16:04:50.705Z,34.03
2019-02-16T16:07:20.263Z,34.00
2019-02-16T16:10:04.913Z,28.20
2019-02-16T16:12:56.569Z,18.87
2019-02-16T16:15:44.782Z,25.97
2019-02-16T16:18:39.454Z,21.70
2019-02-16T16:21:23.661Z,28.13
2019-02-16T16:24:15.338Z,24.23
2019-02-16T16:27:03.185Z,29.47
2019-02-16T16:29:50.526Z,31.13
2019-02-16T16:32:41.941Z,26.97
2019-02-16T16:35:21.389Z,45.43
2019-02-16T16:38:12.957Z,48.27
2019-02-16T16:41:00.534Z,33.77
2019-02-16T16:43:38.228Z,42.57
2019-02-16T16:46:39.377Z,57.73
2019-02-16T16:49:40.315Z,53.77
2019-02-16T16:52:20.498Z,75.57
2019-02-16T16:55:18.519Z,62.40
2019-02-16T16:58:12.947Z,77.40
2019-02-16T17:01:00.434Z,81.60
2019-02-16T17:04:07.484Z,72.27
2019-02-16T17:06:53.305Z,82.83
2019-02-16T17:09:40.198Z,106.30
2019-02-16T17:12:25.248Z,89.97
2019-02-16T17:15:05.478Z,65.53
2019-02-16T17:17:52.321Z,74.00
2019-02-16T17:20:37.032Z,60.43
2019-02-16T17:23:24.461Z,63.50
2019-02-16T17:26:25.120Z,82.33
2019-02-16T17:29:25.752Z,72.97
2019-02-16T17:32:13.429Z,66.10
2019-02-16T17:35:00.776Z,59.20
2019-02-16T17:37:52.116Z,67.13
2019-02-16T17:40:41.244Z,50.77
2019-02-16T17:43:29.842Z,58.67
2019-02-16T17:46:27.457Z,60.23
2019-02-16T17:49:13.826Z,71.70
2019-02-16T17:52:00.208Z,91.37
2019-02-16T17:54:37.120Z,172.33
2019-02-16T17:57:25.881Z,71.63
2019-02-16T18:00:26.531Z,66.37
2019-02-16T18:03:20.989Z,71.80
2019-02-16T18:06:08.139Z,67.87
2019-02-16T18:08:55.246Z,63.53
2019-02-16T18:11:42.645Z,66.53
2019-02-16T18:14:43.229Z,63.13
2019-02-16T18:17:30.539Z,67.70
2019-02-16T18:20:25.226Z,59.97
2019-02-16T18:23:13.951Z,66.37
2019-02-16T18:25:57.722Z,56.53
2019-02-16T18:29:00.017Z,51.40
2019-02-16T18:31:45.554Z,56.80
2019-02-16T18:34:25.699Z,67.77
2019-02-16T18:37:23.345Z,61.97
2019-02-16T18:40:14.682Z,52.80
2019-02-16T18:43:03.456Z,53.57
2019-02-16T18:45:43.323Z,55.23
2019-02-16T18:48:20.800Z,55.00
2019-02-16T18:51:00.971Z,54.47
2019-02-16T18:53:48.057Z,58.67
2019-02-16T18:56:35.653Z,53.20
2019-02-16T18:59:13.554Z,54.23
2019-02-16T19:01:49.357Z,56.47
2019-02-16T19:04:25.560Z,48.50
2019-02-16T19:07:01.004Z,47.87
2019-02-16T19:09:52.393Z,58.80
2019-02-16T19:12:44.516Z,44.67
2019-02-16T19:15:31.956Z,50.23
2019-02-16T19:18:19.175Z,50.23
2019-02-16T19:20:55.784Z,54.20
2019-02-16T19:23:46.031Z,54.90
2019-02-16T19:26:33.594Z,48.07
2019-02-16T19:29:17.963Z,47.60
2019-02-16T19:32:06.492Z,47.93
2019-02-16T19:35:01.293Z,44.17
2019-02-16T19:37:40.424Z,49.57
2019-02-16T19:40:26.882Z,44.63
2019-02-16T19:43:21.567Z,46.00
2019-02-16T19:46:19.392Z,43.93
2019-02-16T19:49:08.119Z,39.23
2019-02-16T19:51:55.455Z,160.60
2019-02-16T19:54:35.467Z,194.03
2019-02-16T19:57:32.603Z,174.13
2019-02-16T20:00:27.129Z,175.10
2019-02-16T20:03:24.677Z,152.53
2019-02-16T20:06:19.107Z,146.90
2019-02-16T20:09:03.126Z,123.83
2019-02-16T20:11:57.813Z,129.93
2019-02-16T20:14:45.506Z,127.30
2019-02-16T20:17:38.573Z,143.27
2019-02-16T20:20:27.076Z,142.80
2019-02-16T20:23:18.580Z,125.13
2019-02-16T20:26:05.936Z,141.53
2019-02-16T20:28:56.039Z,129.13
2019-02-16T20:31:44.278Z,118.77
2019-02-16T20:34:35.989Z,135.63
2019-02-16T20:37:33.446Z,122.43
2019-02-16T20:40:32.393Z,130.50
2019-02-16T20:43:30.032Z,125.97
2019-02-16T20:46:17.202Z,112.00
2019-02-16T20:48:58.741Z,127.83
2019-02-16T20:51:46.187Z,137.43
2019-02-16T20:54:35.057Z,122.47
2019-02-16T20:57:23.791Z,128.03
2019-02-16T21:00:27.833Z,210.93
2019-02-16T21:03:22.123Z,203.10
2019-02-16T21:06:14.131Z,258.63
2019-02-16T21:09:05.860Z,263.40
2019-02-16T21:11:59.458Z,247.17
2019-02-16T21:14:38.503Z,240.23
2019-02-16T21:17:39.102Z,238.57
2019-02-16T21:20:27.741Z,132.87
2019-02-16T21:23:16.576Z,143.50
2019-02-16T21:26:05.390Z,150.03
2019-02-16T21:28:54.025Z,95.33
2019-02-16T21:31:48.487Z,89.23
2019-02-16T21:34:53.725Z,93.30
2019-02-16T21:37:57.699Z,74.67
2019-02-16T21:40:45.193Z,72.80
2019-02-16T21:43:42.661Z,78.43
2019-02-16T21:46:29.647Z,81.47
2019-02-16T21:49:21.378Z,87.07
2019-02-16T21:52:28.723Z,77.70
2019-02-16T21:55:17.234Z,79.57
2019-02-16T21:58:08.025Z,87.80
2019-02-16T22:00:55.024Z,94.40
2019-02-16T22:03:46.512Z,72.83
2019-02-16T22:06:27.750Z,76.37
2019-02-16T22:09:19.191Z,105.87
2019-02-16T22:12:04.180Z,104.67
2019-02-16T22:14:33.902Z,107.07
2019-02-16T22:17:03.722Z,104.97
2019-02-16T22:19:33.478Z,87.33
2019-02-16T22:22:03.383Z,85.23
2019-02-16T22:24:33.189Z,82.07
2019-02-16T22:27:02.969Z,91.47
2019-02-16T22:29:32.770Z,110.10
2019-02-16T22:32:02.617Z,103.80
2019-02-16T22:34:32.098Z,107.10
2019-02-16T22:37:01.734Z,87.83
2019-02-16T22:39:31.471Z,64.97
2019-02-16T22:42:01.307Z,64.50
2019-02-16T22:44:31.175Z,71.40
2019-02-16T22:47:00.953Z,64.90
2019-02-16T22:49:30.690Z,70.57
2019-02-16T22:52:00.561Z,70.10
2019-02-16T22:54:30.718Z,72.27
2019-02-16T22:57:00.465Z,70.57
2019-02-16T22:59:30.051Z,65.30
2019-02-16T23:01:59.943Z,64.17
2019-02-16T23:04:29.750Z,84.03
2019-02-16T23:06:59.536Z,87.93
2019-02-16T23:09:30.009Z,77.70
2019-02-16T23:11:59.754Z,68.33
2019-02-16T23:14:29.971Z,66.23
2019-02-16T23:16:59.804Z,63.13
2019-02-16T23:19:29.683Z,67.70
2019-02-16T23:21:59.402Z,77.80
2019-02-16T23:24:29.319Z,63.40
2019-02-16T23:26:59.055Z,50.13
2019-02-16T23:29:28.676Z,50.80
2019-02-16T23:31:58.409Z,47.93
2019-02-16T23:34:28.220Z,56.37
2019-02-16T23:36:57.711Z,51.37
2019-02-16T23:39:27.549Z,57.40
2019-02-16T23:41:57.278Z,48.87
2019-02-16T23:44:27.022Z,47.03
2019-02-16T23:46:56.668Z,53.70
2019-02-16T23:49:26.363Z,56.83
2019-02-16T23:51:56.100Z,48.90
2019-02-16T23:54:25.740Z,51.70
2019-02-16T23:56:55.651Z,52.77
2019-02-16T23:59:25.379Z,50.77
